sensor_id;sensor_type;location;lat;lon;timestamp;P1;durP1;ratioP1;P2;durP2;ratioP2
52041;SDS011;38052;45.944;13.624;2022-12-16T00:01:21;2.80;;;1.33;;
52041;SDS011;38052;45.944;13.624;2022-12-16T00:03:56;1.73;;;0.77;;
52041;SDS011;38052;45.944;13.624;2022-12-16T00:06:24;2.65;;;1.02;;
52041;SDS011;38052;45.944;13.624;2022-12-16T00:08:50;1.30;;;0.90;;
52041;SDS011;38052;45.944;13.624;2022-12-16T00:11:17;2.65;;;0.50;;
52041;SDS011;38052;45.944;13.624;2022-12-16T00:13:44;1.65;;;0.63;;
52041;SDS011;38052;45.944;13.624;2022-12-16T00:16:11;1.23;;;0.50;;
52041;SDS011;38052;45.944;13.624;2022-12-16T00:18:37;0.77;;;0.40;;
52041;SDS011;38052;45.944;13.624;2022-12-16T00:21:04;2.13;;;0.60;;
52041;SDS011;38052;45.944;13.624;2022-12-16T00:23:31;1.15;;;0.43;;
52041;SDS011;38052;45.944;13.624;2022-12-16T00:25:58;1.33;;;0.70;;
52041;SDS011;38052;45.944;13.624;2022-12-16T00:28:25;1.15;;;0.82;;
52041;SDS011;38052;45.944;13.624;2022-12-16T00:30:53;2.17;;;0.75;;
52041;SDS011;38052;45.944;13.624;2022-12-16T00:33:20;0.90;;;0.30;;
52041;SDS011;38052;45.944;13.624;2022-12-16T00:35:47;0.68;;;0.30;;
52041;SDS011;38052;45.944;13.624;2022-12-16T00:38:14;1.42;;;0.32;;
52041;SDS011;38052;45.944;13.624;2022-12-16T00:40:41;1.27;;;0.40;;
52041;SDS011;38052;45.944;13.624;2022-12-16T00:43:08;0.45;;;0.22;;
52041;SDS011;38052;45.944;13.624;2022-12-16T00:45:34;0.45;;;0.30;;
52041;SDS011;38052;45.944;13.624;2022-12-16T00:48:01;0.88;;;0.30;;
52041;SDS011;38052;45.944;13.624;2022-12-16T00:50:28;1.38;;;0.32;;
52041;SDS011;38052;45.944;13.624;2022-12-16T00:52:55;0.80;;;0.20;;
52041;SDS011;38052;45.944;13.624;2022-12-16T00:55:21;1.55;;;0.60;;
52041;SDS011;38052;45.944;13.624;2022-12-16T00:57:48;1.73;;;0.38;;
52041;SDS011;38052;45.944;13.624;2022-12-16T01:00:15;1.17;;;0.40;;
52041;SDS011;38052;45.944;13.624;2022-12-16T01:02:41;2.70;;;0.50;;
52041;SDS011;38052;45.944;13.624;2022-12-16T01:05:09;2.28;;;0.90;;
52041;SDS011;38052;45.944;13.624;2022-12-16T01:07:36;0.93;;;0.43;;
52041;SDS011;38052;45.944;13.624;2022-12-16T01:10:04;2.35;;;0.70;;
52041;SDS011;38052;45.944;13.624;2022-12-16T01:12:31;1.33;;;0.70;;
52041;SDS011;38052;45.944;13.624;2022-12-16T01:14:57;1.67;;;0.70;;
52041;SDS011;38052;45.944;13.624;2022-12-16T01:17:23;2.60;;;1.17;;
52041;SDS011;38052;45.944;13.624;2022-12-16T01:19:50;2.70;;;0.60;;
52041;SDS011;38052;45.944;13.624;2022-12-16T01:22:17;4.38;;;1.02;;
52041;SDS011;38052;45.944;13.624;2022-12-16T01:24:43;3.28;;;0.57;;
52041;SDS011;38052;45.944;13.624;2022-12-16T01:27:09;1.40;;;0.32;;
52041;SDS011;38052;45.944;13.624;2022-12-16T01:29:36;2.28;;;0.40;;
52041;SDS011;38052;45.944;13.624;2022-12-16T01:32:03;1.58;;;0.32;;
52041;SDS011;38052;45.944;13.624;2022-12-16T01:34:30;1.50;;;0.30;;
52041;SDS011;38052;45.944;13.624;2022-12-16T01:36:57;2.08;;;0.50;;
52041;SDS011;38052;45.944;13.624;2022-12-16T01:39:23;1.80;;;0.40;;
52041;SDS011;38052;45.944;13.624;2022-12-16T01:41:51;0.65;;;0.20;;
52041;SDS011;38052;45.944;13.624;2022-12-16T01:44:19;0.30;;;0.10;;
52041;SDS011;38052;45.944;13.624;2022-12-16T01:46:53;1.05;;;0.30;;
52041;SDS011;38052;45.944;13.624;2022-12-16T01:49:42;2.13;;;0.25;;
52041;SDS011;38052;45.944;13.624;2022-12-16T01:52:09;0.57;;;0.20;;
52041;SDS011;38052;45.944;13.624;2022-12-16T01:54:37;0.70;;;0.22;;
52041;SDS011;38052;45.944;13.624;2022-12-16T01:57:05;0.57;;;0.17;;
52041;SDS011;38052;45.944;13.624;2022-12-16T01:59:34;3.25;;;0.57;;
52041;SDS011;38052;45.944;13.624;2022-12-16T02:02:01;0.98;;;0.32;;
52041;SDS011;38052;45.944;13.624;2022-12-16T02:04:28;2.05;;;0.70;;
52041;SDS011;38052;45.944;13.624;2022-12-16T02:06:55;1.73;;;0.30;;
52041;SDS011;38052;45.944;13.624;2022-12-16T02:09:22;1.65;;;0.30;;
52041;SDS011;38052;45.944;13.624;2022-12-16T02:32:25;1.50;;;0.40;;
52041;SDS011;38052;45.944;13.624;2022-12-16T02:37:32;0.98;;;0.43;;
52041;SDS011;38052;45.944;13.624;2022-12-16T02:40:06;1.33;;;0.50;;
52041;SDS011;38052;45.944;13.624;2022-12-16T02:42:36;1.58;;;0.55;;
52041;SDS011;38052;45.944;13.624;2022-12-16T02:45:15;1.02;;;0.38;;
52041;SDS011;38052;45.944;13.624;2022-12-16T02:47:45;1.42;;;0.30;;
52041;SDS011;38052;45.944;13.624;2022-12-16T02:50:19;1.17;;;0.40;;
52041;SDS011;38052;45.944;13.624;2022-12-16T02:52:46;0.90;;;0.30;;
52041;SDS011;38052;45.944;13.624;2022-12-16T02:55:14;1.02;;;0.50;;
52041;SDS011;38052;45.944;13.624;2022-12-16T03:00:14;1.85;;;0.50;;
52041;SDS011;38052;45.944;13.624;2022-12-16T03:08:47;1.83;;;0.50;;
52041;SDS011;38052;45.944;13.624;2022-12-16T03:11:05;5.35;;;1.25;;
52041;SDS011;38052;45.944;13.624;2022-12-16T03:13:45;3.10;;;1.85;;
52041;SDS011;38052;45.944;13.624;2022-12-16T03:16:13;3.55;;;0.60;;
52041;SDS011;38052;45.944;13.624;2022-12-16T03:18:40;3.08;;;0.30;;
52041;SDS011;38052;45.944;13.624;2022-12-16T03:21:09;3.47;;;0.63;;
52041;SDS011;38052;45.944;13.624;2022-12-16T03:23:44;2.33;;;0.45;;
52041;SDS011;38052;45.944;13.624;2022-12-16T03:26:19;4.05;;;0.50;;
52041;SDS011;38052;45.944;13.624;2022-12-16T03:28:49;1.65;;;0.60;;
52041;SDS011;38052;45.944;13.624;2022-12-16T03:33:48;5.05;;;1.00;;
52041;SDS011;38052;45.944;13.624;2022-12-16T03:36:20;3.55;;;0.93;;
52041;SDS011;38052;45.944;13.624;2022-12-16T03:38:47;2.28;;;0.90;;
52041;SDS011;38052;45.944;13.624;2022-12-16T03:41:15;2.00;;;0.90;;
52041;SDS011;38052;45.944;13.624;2022-12-16T03:43:42;5.97;;;0.90;;
52041;SDS011;38052;45.944;13.624;2022-12-16T03:46:08;3.72;;;1.33;;
52041;SDS011;38052;45.944;13.624;2022-12-16T03:48:35;5.78;;;1.63;;
52041;SDS011;38052;45.944;13.624;2022-12-16T03:51:02;3.03;;;1.88;;
52041;SDS011;38052;45.944;13.624;2022-12-16T03:53:28;4.43;;;1.85;;
52041;SDS011;38052;45.944;13.624;2022-12-16T03:55:54;5.95;;;2.33;;
52041;SDS011;38052;45.944;13.624;2022-12-16T03:58:21;4.30;;;2.33;;
52041;SDS011;38052;45.944;13.624;2022-12-16T04:00:48;4.38;;;2.25;;
52041;SDS011;38052;45.944;13.624;2022-12-16T04:03:14;6.00;;;2.05;;
52041;SDS011;38052;45.944;13.624;2022-12-16T04:05:41;5.85;;;2.67;;
52041;SDS011;38052;45.944;13.624;2022-12-16T04:08:07;6.85;;;2.97;;
52041;SDS011;38052;45.944;13.624;2022-12-16T04:10:34;9.68;;;2.10;;
52041;SDS011;38052;45.944;13.624;2022-12-16T04:13:18;3.65;;;2.15;;
52041;SDS011;38052;45.944;13.624;2022-12-16T04:16:03;9.75;;;2.97;;
52041;SDS011;38052;45.944;13.624;2022-12-16T04:18:47;6.80;;;3.85;;
52041;SDS011;38052;45.944;13.624;2022-12-16T04:21:32;4.85;;;4.07;;
52041;SDS011;38052;45.944;13.624;2022-12-16T04:24:17;9.52;;;5.30;;
52041;SDS011;38052;45.944;13.624;2022-12-16T04:26:44;6.57;;;4.70;;
52041;SDS011;38052;45.944;13.624;2022-12-16T04:29:29;8.18;;;5.13;;
52041;SDS011;38052;45.944;13.624;2022-12-16T04:31:56;8.25;;;4.97;;
52041;SDS011;38052;45.944;13.624;2022-12-16T04:34:23;6.82;;;4.95;;
52041;SDS011;38052;45.944;13.624;2022-12-16T04:36:51;7.45;;;3.88;;
52041;SDS011;38052;45.944;13.624;2022-12-16T04:39:36;10.77;;;4.30;;
52041;SDS011;38052;45.944;13.624;2022-12-16T04:42:20;8.93;;;4.50;;
52041;SDS011;38052;45.944;13.624;2022-12-16T04:45:05;8.00;;;3.78;;
52041;SDS011;38052;45.944;13.624;2022-12-16T04:47:49;7.47;;;5.65;;
52041;SDS011;38052;45.944;13.624;2022-12-16T04:50:35;7.88;;;4.13;;
52041;SDS011;38052;45.944;13.624;2022-12-16T04:53:20;7.25;;;4.05;;
52041;SDS011;38052;45.944;13.624;2022-12-16T04:56:05;6.93;;;3.83;;
52041;SDS011;38052;45.944;13.624;2022-12-16T04:58:49;5.95;;;3.78;;
52041;SDS011;38052;45.944;13.624;2022-12-16T05:01:34;7.30;;;3.65;;
52041;SDS011;38052;45.944;13.624;2022-12-16T05:04:23;7.20;;;3.25;;
52041;SDS011;38052;45.944;13.624;2022-12-16T05:07:07;5.97;;;2.58;;
52041;SDS011;38052;45.944;13.624;2022-12-16T05:09:51;4.53;;;1.98;;
52041;SDS011;38052;45.944;13.624;2022-12-16T05:12:37;5.88;;;2.22;;
52041;SDS011;38052;45.944;13.624;2022-12-16T05:15:22;10.18;;;2.78;;
52041;SDS011;38052;45.944;13.624;2022-12-16T05:18:13;14.25;;;6.90;;
52041;SDS011;38052;45.944;13.624;2022-12-16T05:20:59;8.88;;;4.13;;
52041;SDS011;38052;45.944;13.624;2022-12-16T05:23:44;8.35;;;4.05;;
52041;SDS011;38052;45.944;13.624;2022-12-16T05:26:28;7.20;;;3.45;;
52041;SDS011;38052;45.944;13.624;2022-12-16T05:29:13;8.02;;;3.17;;
52041;SDS011;38052;45.944;13.624;2022-12-16T05:31:57;7.00;;;3.75;;
52041;SDS011;38052;45.944;13.624;2022-12-16T05:34:42;8.77;;;4.28;;
52041;SDS011;38052;45.944;13.624;2022-12-16T05:37:26;7.05;;;3.75;;
52041;SDS011;38052;45.944;13.624;2022-12-16T05:40:14;5.47;;;3.35;;
52041;SDS011;38052;45.944;13.624;2022-12-16T05:42:58;7.88;;;3.08;;
52041;SDS011;38052;45.944;13.624;2022-12-16T05:45:43;6.60;;;3.13;;
52041;SDS011;38052;45.944;13.624;2022-12-16T05:48:28;4.72;;;3.22;;
52041;SDS011;38052;45.944;13.624;2022-12-16T05:51:12;5.18;;;3.20;;
52041;SDS011;38052;45.944;13.624;2022-12-16T05:53:57;8.50;;;3.80;;
52041;SDS011;38052;45.944;13.624;2022-12-16T05:56:42;9.02;;;3.78;;
52041;SDS011;38052;45.944;13.624;2022-12-16T05:59:26;8.23;;;4.35;;
52041;SDS011;38052;45.944;13.624;2022-12-16T06:02:11;7.47;;;3.72;;
52041;SDS011;38052;45.944;13.624;2022-12-16T06:04:55;7.30;;;4.10;;
52041;SDS011;38052;45.944;13.624;2022-12-16T06:07:40;11.05;;;4.93;;
52041;SDS011;38052;45.944;13.624;2022-12-16T06:10:25;8.27;;;4.32;;
52041;SDS011;38052;45.944;13.624;2022-12-16T06:13:09;7.95;;;5.00;;
52041;SDS011;38052;45.944;13.624;2022-12-16T06:15:54;7.25;;;4.10;;
52041;SDS011;38052;45.944;13.624;2022-12-16T06:18:39;9.52;;;3.95;;
52041;SDS011;38052;45.944;13.624;2022-12-16T06:21:24;7.30;;;4.53;;
52041;SDS011;38052;45.944;13.624;2022-12-16T06:24:09;6.93;;;4.25;;
52041;SDS011;38052;45.944;13.624;2022-12-16T06:26:53;11.00;;;6.72;;
52041;SDS011;38052;45.944;13.624;2022-12-16T06:29:38;17.10;;;7.63;;
52041;SDS011;38052;45.944;13.624;2022-12-16T06:32:22;9.88;;;5.97;;
52041;SDS011;38052;45.944;13.624;2022-12-16T06:35:07;9.27;;;5.95;;
52041;SDS011;38052;45.944;13.624;2022-12-16T06:37:56;11.38;;;8.43;;
52041;SDS011;38052;45.944;13.624;2022-12-16T06:40:41;11.10;;;5.85;;
52041;SDS011;38052;45.944;13.624;2022-12-16T06:43:25;11.73;;;6.20;;
52041;SDS011;38052;45.944;13.624;2022-12-16T06:46:10;12.93;;;6.55;;
52041;SDS011;38052;45.944;13.624;2022-12-16T06:48:55;8.63;;;6.28;;
52041;SDS011;38052;45.944;13.624;2022-12-16T06:51:39;10.00;;;6.65;;
52041;SDS011;38052;45.944;13.624;2022-12-16T06:54:24;9.60;;;6.93;;
52041;SDS011;38052;45.944;13.624;2022-12-16T06:57:08;7.38;;;6.00;;
52041;SDS011;38052;45.944;13.624;2022-12-16T06:59:53;8.80;;;5.78;;
52041;SDS011;38052;45.944;13.624;2022-12-16T07:02:38;8.52;;;5.65;;
52041;SDS011;38052;45.944;13.624;2022-12-16T07:05:23;9.00;;;4.85;;
52041;SDS011;38052;45.944;13.624;2022-12-16T07:08:07;8.70;;;4.47;;
52041;SDS011;38052;45.944;13.624;2022-12-16T07:10:52;7.07;;;5.35;;
52041;SDS011;38052;45.944;13.624;2022-12-16T07:13:36;7.93;;;5.47;;
52041;SDS011;38052;45.944;13.624;2022-12-16T07:16:21;9.43;;;5.70;;
52041;SDS011;38052;45.944;13.624;2022-12-16T07:19:06;8.57;;;5.53;;
52041;SDS011;38052;45.944;13.624;2022-12-16T07:21:51;8.95;;;5.43;;
52041;SDS011;38052;45.944;13.624;2022-12-16T07:24:35;11.55;;;5.72;;
52041;SDS011;38052;45.944;13.624;2022-12-16T07:27:20;12.15;;;5.68;;
52041;SDS011;38052;45.944;13.624;2022-12-16T07:30:05;8.48;;;5.53;;
52041;SDS011;38052;45.944;13.624;2022-12-16T07:32:49;10.63;;;5.10;;
52041;SDS011;38052;45.944;13.624;2022-12-16T07:35:34;10.30;;;4.65;;
52041;SDS011;38052;45.944;13.624;2022-12-16T07:38:19;7.03;;;4.18;;
52041;SDS011;38052;45.944;13.624;2022-12-16T07:41:03;13.55;;;5.53;;
52041;SDS011;38052;45.944;13.624;2022-12-16T07:43:48;8.90;;;4.85;;
52041;SDS011;38052;45.944;13.624;2022-12-16T07:46:32;7.05;;;4.85;;
52041;SDS011;38052;45.944;13.624;2022-12-16T07:49:16;8.48;;;5.22;;
52041;SDS011;38052;45.944;13.624;2022-12-16T07:52:01;10.70;;;5.13;;
52041;SDS011;38052;45.944;13.624;2022-12-16T07:54:46;9.55;;;5.45;;
52041;SDS011;38052;45.944;13.624;2022-12-16T07:57:31;10.95;;;6.38;;
52041;SDS011;38052;45.944;13.624;2022-12-16T08:00:15;11.13;;;7.80;;
52041;SDS011;38052;45.944;13.624;2022-12-16T08:03:00;12.23;;;7.90;;
52041;SDS011;38052;45.944;13.624;2022-12-16T08:05:45;11.68;;;8.30;;
52041;SDS011;38052;45.944;13.624;2022-12-16T08:08:30;14.18;;;8.88;;
52041;SDS011;38052;45.944;13.624;2022-12-16T08:11:15;13.75;;;8.15;;
52041;SDS011;38052;45.944;13.624;2022-12-16T08:13:59;10.85;;;7.53;;
52041;SDS011;38052;45.944;13.624;2022-12-16T08:16:44;16.02;;;9.60;;
52041;SDS011;38052;45.944;13.624;2022-12-16T08:19:29;15.35;;;9.10;;
52041;SDS011;38052;45.944;13.624;2022-12-16T08:22:14;9.68;;;7.35;;
52041;SDS011;38052;45.944;13.624;2022-12-16T08:25:12;9.85;;;6.50;;
52041;SDS011;38052;45.944;13.624;2022-12-16T08:27:56;8.60;;;5.85;;
52041;SDS011;38052;45.944;13.624;2022-12-16T08:30:43;12.32;;;5.55;;
52041;SDS011;38052;45.944;13.624;2022-12-16T08:33:27;8.18;;;4.65;;
52041;SDS011;38052;45.944;13.624;2022-12-16T08:36:12;12.18;;;5.90;;
52041;SDS011;38052;45.944;13.624;2022-12-16T08:38:57;10.90;;;5.85;;
52041;SDS011;38052;45.944;13.624;2022-12-16T08:41:41;11.20;;;5.32;;
52041;SDS011;38052;45.944;13.624;2022-12-16T08:44:42;11.90;;;5.78;;
52041;SDS011;38052;45.944;13.624;2022-12-16T08:47:27;7.97;;;6.25;;
52041;SDS011;38052;45.944;13.624;2022-12-16T08:50:12;8.50;;;5.75;;
52041;SDS011;38052;45.944;13.624;2022-12-16T08:52:56;7.90;;;4.95;;
52041;SDS011;38052;45.944;13.624;2022-12-16T08:55:41;9.10;;;5.47;;
52041;SDS011;38052;45.944;13.624;2022-12-16T08:58:43;13.80;;;8.93;;
52041;SDS011;38052;45.944;13.624;2022-12-16T09:01:28;9.52;;;4.78;;
52041;SDS011;38052;45.944;13.624;2022-12-16T09:04:12;10.90;;;5.20;;
52041;SDS011;38052;45.944;13.624;2022-12-16T09:06:57;14.15;;;6.95;;
52041;SDS011;38052;45.944;13.624;2022-12-16T09:09:41;11.25;;;7.53;;
52041;SDS011;38052;45.944;13.624;2022-12-16T09:12:25;10.32;;;5.55;;
52041;SDS011;38052;45.944;13.624;2022-12-16T09:15:10;8.90;;;5.32;;
52041;SDS011;38052;45.944;13.624;2022-12-16T09:17:55;16.52;;;7.05;;
52041;SDS011;38052;45.944;13.624;2022-12-16T09:20:39;16.98;;;7.85;;
52041;SDS011;38052;45.944;13.624;2022-12-16T09:23:24;9.57;;;6.68;;
52041;SDS011;38052;45.944;13.624;2022-12-16T09:26:09;12.32;;;6.07;;
52041;SDS011;38052;45.944;13.624;2022-12-16T09:28:53;9.52;;;6.07;;
52041;SDS011;38052;45.944;13.624;2022-12-16T09:31:38;15.02;;;9.35;;
52041;SDS011;38052;45.944;13.624;2022-12-16T09:34:22;17.67;;;9.02;;
52041;SDS011;38052;45.944;13.624;2022-12-16T09:37:07;14.63;;;7.60;;
52041;SDS011;38052;45.944;13.624;2022-12-16T09:39:51;14.02;;;8.07;;
52041;SDS011;38052;45.944;13.624;2022-12-16T09:42:43;16.52;;;10.50;;
52041;SDS011;38052;45.944;13.624;2022-12-16T09:45:32;18.83;;;11.68;;
52041;SDS011;38052;45.944;13.624;2022-12-16T09:51:04;20.42;;;10.82;;
52041;SDS011;38052;45.944;13.624;2022-12-16T09:53:50;15.95;;;10.65;;
52041;SDS011;38052;45.944;13.624;2022-12-16T09:56:35;13.30;;;8.48;;
52041;SDS011;38052;45.944;13.624;2022-12-16T09:59:24;15.88;;;9.32;;
52041;SDS011;38052;45.944;13.624;2022-12-16T10:02:11;12.75;;;9.02;;
52041;SDS011;38052;45.944;13.624;2022-12-16T10:04:56;14.90;;;8.27;;
52041;SDS011;38052;45.944;13.624;2022-12-16T10:07:43;14.98;;;9.93;;
52041;SDS011;38052;45.944;13.624;2022-12-16T10:21:51;10.27;;;7.13;;
52041;SDS011;38052;45.944;13.624;2022-12-16T10:24:52;10.77;;;6.75;;
52041;SDS011;38052;45.944;13.624;2022-12-16T10:27:43;14.38;;;8.65;;
52041;SDS011;38052;45.944;13.624;2022-12-16T10:30:29;14.18;;;7.60;;
52041;SDS011;38052;45.944;13.624;2022-12-16T10:33:14;14.48;;;8.30;;
52041;SDS011;38052;45.944;13.624;2022-12-16T10:35:59;11.57;;;7.05;;
52041;SDS011;38052;45.944;13.624;2022-12-16T10:38:45;9.52;;;6.93;;
52041;SDS011;38052;45.944;13.624;2022-12-16T10:41:33;12.68;;;6.57;;
52041;SDS011;38052;45.944;13.624;2022-12-16T10:44:22;13.55;;;8.57;;
52041;SDS011;38052;45.944;13.624;2022-12-16T10:47:08;9.70;;;6.35;;
52041;SDS011;38052;45.944;13.624;2022-12-16T10:49:54;10.25;;;6.78;;
52041;SDS011;38052;45.944;13.624;2022-12-16T10:53:24;9.75;;;6.13;;
52041;SDS011;38052;45.944;13.624;2022-12-16T10:58:57;10.27;;;7.07;;
52041;SDS011;38052;45.944;13.624;2022-12-16T11:04:41;11.70;;;8.13;;
52041;SDS011;38052;45.944;13.624;2022-12-16T11:13:19;10.10;;;8.73;;
52041;SDS011;38052;45.944;13.624;2022-12-16T11:18:55;11.93;;;6.50;;
52041;SDS011;38052;45.944;13.624;2022-12-16T11:21:39;9.32;;;6.22;;
52041;SDS011;38052;45.944;13.624;2022-12-16T11:24:24;8.63;;;5.82;;
52041;SDS011;38052;45.944;13.624;2022-12-16T11:29:57;11.07;;;5.20;;
52041;SDS011;38052;45.944;13.624;2022-12-16T11:32:52;7.45;;;5.82;;
52041;SDS011;38052;45.944;13.624;2022-12-16T11:35:39;13.00;;;7.40;;
52041;SDS011;38052;45.944;13.624;2022-12-16T11:38:42;15.13;;;8.90;;
52041;SDS011;38052;45.944;13.624;2022-12-16T11:41:35;10.25;;;8.05;;
52041;SDS011;38052;45.944;13.624;2022-12-16T11:44:21;14.82;;;8.82;;
52041;SDS011;38052;45.944;13.624;2022-12-16T11:47:12;10.80;;;7.45;;
52041;SDS011;38052;45.944;13.624;2022-12-16T11:52:44;11.52;;;7.50;;
52041;SDS011;38052;45.944;13.624;2022-12-16T11:55:35;13.18;;;7.95;;
52041;SDS011;38052;45.944;13.624;2022-12-16T11:59:04;10.25;;;7.95;;
52041;SDS011;38052;45.944;13.624;2022-12-16T12:01:35;8.95;;;7.82;;
52041;SDS011;38052;45.944;13.624;2022-12-16T12:04:23;13.57;;;9.75;;
52041;SDS011;38052;45.944;13.624;2022-12-16T12:07:20;13.10;;;9.38;;
52041;SDS011;38052;45.944;13.624;2022-12-16T12:10:10;16.40;;;10.30;;
52041;SDS011;38052;45.944;13.624;2022-12-16T12:15:47;12.50;;;9.30;;
52041;SDS011;38052;45.944;13.624;2022-12-16T12:21:27;12.10;;;8.32;;
52041;SDS011;38052;45.944;13.624;2022-12-16T12:24:23;11.52;;;9.15;;
52041;SDS011;38052;45.944;13.624;2022-12-16T12:46:58;15.88;;;11.48;;
52041;SDS011;38052;45.944;13.624;2022-12-16T12:49:53;14.95;;;11.27;;
52041;SDS011;38052;45.944;13.624;2022-12-16T12:56:17;17.85;;;12.23;;
52041;SDS011;38052;45.944;13.624;2022-12-16T12:58:34;22.02;;;14.18;;
52041;SDS011;38052;45.944;13.624;2022-12-16T13:01:20;19.35;;;15.25;;
52041;SDS011;38052;45.944;13.624;2022-12-16T13:04:09;21.35;;;14.27;;
52041;SDS011;38052;45.944;13.624;2022-12-16T13:06:58;26.08;;;14.52;;
52041;SDS011;38052;45.944;13.624;2022-12-16T13:09:43;23.63;;;14.35;;
52041;SDS011;38052;45.944;13.624;2022-12-16T13:12:29;23.20;;;12.10;;
52041;SDS011;38052;45.944;13.624;2022-12-16T13:15:34;17.63;;;12.13;;
52041;SDS011;38052;45.944;13.624;2022-12-16T13:18:19;17.52;;;11.57;;
52041;SDS011;38052;45.944;13.624;2022-12-16T13:21:40;13.07;;;9.50;;
52041;SDS011;38052;45.944;13.624;2022-12-16T13:24:20;15.38;;;11.13;;
52041;SDS011;38052;45.944;13.624;2022-12-16T13:27:12;15.23;;;10.57;;
52041;SDS011;38052;45.944;13.624;2022-12-16T13:29:59;16.40;;;10.60;;
52041;SDS011;38052;45.944;13.624;2022-12-16T13:32:52;19.88;;;12.52;;
52041;SDS011;38052;45.944;13.624;2022-12-16T13:35:50;15.13;;;10.82;;
52041;SDS011;38052;45.944;13.624;2022-12-16T13:38:35;11.57;;;8.30;;
52041;SDS011;38052;45.944;13.624;2022-12-16T13:48:14;12.65;;;9.57;;
52041;SDS011;38052;45.944;13.624;2022-12-16T13:50:41;15.75;;;9.48;;
52041;SDS011;38052;45.944;13.624;2022-12-16T13:54:08;15.52;;;11.10;;
52041;SDS011;38052;45.944;13.624;2022-12-16T13:56:35;16.23;;;11.93;;
52041;SDS011;38052;45.944;13.624;2022-12-16T13:59:23;14.43;;;10.27;;
52041;SDS011;38052;45.944;13.624;2022-12-16T14:05:18;13.85;;;8.68;;
52041;SDS011;38052;45.944;13.624;2022-12-16T14:08:15;9.45;;;7.55;;
52041;SDS011;38052;45.944;13.624;2022-12-16T14:11:01;13.18;;;9.13;;
52041;SDS011;38052;45.944;13.624;2022-12-16T14:13:51;17.55;;;9.85;;
52041;SDS011;38052;45.944;13.624;2022-12-16T14:25:19;27.55;;;18.50;;
52041;SDS011;38052;45.944;13.624;2022-12-16T14:31:25;17.27;;;12.57;;
52041;SDS011;38052;45.944;13.624;2022-12-16T14:34:15;11.45;;;7.82;;
52041;SDS011;38052;45.944;13.624;2022-12-16T14:37:20;16.13;;;10.98;;
52041;SDS011;38052;45.944;13.624;2022-12-16T14:40:50;19.10;;;13.23;;
52041;SDS011;38052;45.944;13.624;2022-12-16T14:43:20;14.25;;;11.02;;
52041;SDS011;38052;45.944;13.624;2022-12-16T14:46:26;15.05;;;10.77;;
52041;SDS011;38052;45.944;13.624;2022-12-16T14:49:14;18.15;;;12.80;;
52041;SDS011;38052;45.944;13.624;2022-12-16T14:52:01;14.63;;;11.05;;
52041;SDS011;38052;45.944;13.624;2022-12-16T14:54:45;16.58;;;11.00;;
52041;SDS011;38052;45.944;13.624;2022-12-16T14:57:31;13.43;;;11.32;;
52041;SDS011;38052;45.944;13.624;2022-12-16T15:00:19;19.50;;;13.77;;
52041;SDS011;38052;45.944;13.624;2022-12-16T15:06:26;10.95;;;9.60;;
52041;SDS011;38052;45.944;13.624;2022-12-16T15:12:11;16.42;;;12.82;;
52041;SDS011;38052;45.944;13.624;2022-12-16T15:14:56;20.58;;;13.93;;
52041;SDS011;38052;45.944;13.624;2022-12-16T15:20:26;22.73;;;15.20;;
52041;SDS011;38052;45.944;13.624;2022-12-16T15:23:30;20.63;;;14.55;;
52041;SDS011;38052;45.944;13.624;2022-12-16T15:26:19;17.63;;;13.52;;
52041;SDS011;38052;45.944;13.624;2022-12-16T15:29:04;19.00;;;14.40;;
52041;SDS011;38052;45.944;13.624;2022-12-16T15:31:49;15.70;;;9.80;;
52041;SDS011;38052;45.944;13.624;2022-12-16T15:34:46;9.57;;;7.20;;
52041;SDS011;38052;45.944;13.624;2022-12-16T15:37:36;11.32;;;8.23;;
52041;SDS011;38052;45.944;13.624;2022-12-16T15:40:23;9.30;;;7.10;;
52041;SDS011;38052;45.944;13.624;2022-12-16T15:46:15;18.17;;;10.20;;
52041;SDS011;38052;45.944;13.624;2022-12-16T15:49:00;9.45;;;7.05;;
52041;SDS011;38052;45.944;13.624;2022-12-16T15:51:45;10.30;;;7.45;;
52041;SDS011;38052;45.944;13.624;2022-12-16T15:54:30;9.48;;;6.22;;
52041;SDS011;38052;45.944;13.624;2022-12-16T15:57:25;8.48;;;6.63;;
52041;SDS011;38052;45.944;13.624;2022-12-16T16:00:43;7.43;;;5.35;;
52041;SDS011;38052;45.944;13.624;2022-12-16T16:06:39;13.48;;;8.18;;
52041;SDS011;38052;45.944;13.624;2022-12-16T16:09:23;10.05;;;6.85;;
52041;SDS011;38052;45.944;13.624;2022-12-16T16:12:09;10.23;;;6.15;;
52041;SDS011;38052;45.944;13.624;2022-12-16T16:14:54;8.50;;;6.70;;
52041;SDS011;38052;45.944;13.624;2022-12-16T16:17:39;12.20;;;8.35;;
52041;SDS011;38052;45.944;13.624;2022-12-16T16:20:23;11.52;;;8.82;;
52041;SDS011;38052;45.944;13.624;2022-12-16T16:23:09;11.70;;;8.75;;
52041;SDS011;38052;45.944;13.624;2022-12-16T16:25:54;15.10;;;9.20;;
52041;SDS011;38052;45.944;13.624;2022-12-16T16:28:39;13.73;;;9.80;;
52041;SDS011;38052;45.944;13.624;2022-12-16T16:31:24;12.82;;;9.32;;
52041;SDS011;38052;45.944;13.624;2022-12-16T16:34:09;12.57;;;9.38;;
52041;SDS011;38052;45.944;13.624;2022-12-16T16:36:55;10.60;;;8.55;;
52041;SDS011;38052;45.944;13.624;2022-12-16T16:39:40;12.90;;;9.80;;
52041;SDS011;38052;45.944;13.624;2022-12-16T16:42:25;9.80;;;7.60;;
52041;SDS011;38052;45.944;13.624;2022-12-16T16:45:10;12.45;;;8.55;;
52041;SDS011;38052;45.944;13.624;2022-12-16T16:48:00;11.85;;;8.85;;
52041;SDS011;38052;45.944;13.624;2022-12-16T16:53:31;10.70;;;7.85;;
52041;SDS011;38052;45.944;13.624;2022-12-16T16:56:16;12.38;;;9.02;;
52041;SDS011;38052;45.944;13.624;2022-12-16T16:59:01;11.38;;;8.95;;
52041;SDS011;38052;45.944;13.624;2022-12-16T17:01:45;11.65;;;9.48;;
52041;SDS011;38052;45.944;13.624;2022-12-16T17:04:30;10.90;;;9.70;;
52041;SDS011;38052;45.944;13.624;2022-12-16T17:07:14;12.50;;;9.40;;
52041;SDS011;38052;45.944;13.624;2022-12-16T17:09:59;10.70;;;9.50;;
52041;SDS011;38052;45.944;13.624;2022-12-16T17:12:44;14.90;;;10.60;;
52041;SDS011;38052;45.944;13.624;2022-12-16T17:15:31;15.77;;;10.88;;
52041;SDS011;38052;45.944;13.624;2022-12-16T17:18:15;14.32;;;10.38;;
52041;SDS011;38052;45.944;13.624;2022-12-16T17:21:00;13.18;;;10.50;;
52041;SDS011;38052;45.944;13.624;2022-12-16T17:23:44;15.57;;;11.73;;
52041;SDS011;38052;45.944;13.624;2022-12-16T17:26:30;14.25;;;11.75;;
52041;SDS011;38052;45.944;13.624;2022-12-16T17:29:19;19.48;;;13.32;;
52041;SDS011;38052;45.944;13.624;2022-12-16T17:32:05;19.02;;;13.93;;
52041;SDS011;38052;45.944;13.624;2022-12-16T17:34:50;18.45;;;14.38;;
52041;SDS011;38052;45.944;13.624;2022-12-16T17:37:34;21.33;;;15.60;;
52041;SDS011;38052;45.944;13.624;2022-12-16T17:40:19;18.50;;;14.48;;
52041;SDS011;38052;45.944;13.624;2022-12-16T17:43:04;20.98;;;14.60;;
52041;SDS011;38052;45.944;13.624;2022-12-16T17:45:59;23.67;;;18.10;;
52041;SDS011;38052;45.944;13.624;2022-12-16T17:48:43;21.83;;;16.10;;
52041;SDS011;38052;45.944;13.624;2022-12-16T17:51:28;26.58;;;18.83;;
52041;SDS011;38052;45.944;13.624;2022-12-16T17:54:12;22.05;;;16.90;;
52041;SDS011;38052;45.944;13.624;2022-12-16T17:56:57;20.55;;;15.95;;
52041;SDS011;38052;45.944;13.624;2022-12-16T17:59:42;26.77;;;19.20;;
52041;SDS011;38052;45.944;13.624;2022-12-16T18:02:26;22.02;;;17.65;;
52041;SDS011;38052;45.944;13.624;2022-12-16T18:05:11;23.95;;;18.45;;
52041;SDS011;38052;45.944;13.624;2022-12-16T18:07:55;34.03;;;22.77;;
52041;SDS011;38052;45.944;13.624;2022-12-16T18:10:40;32.85;;;23.13;;